• Join FlightAware (Why Join?)
  • Login
  • US Flag 
04:59AM EDT


 

Airport Tracker/Info


-or-


 

Live Flight TrackerFlight Track Log ✈ N146GS ✈ 03-May-2013 ✈ KAIK - KGMU

Flight Track Log - Related Links

Times and Time Zones

All times are in EDT time to prevent confusion due to time zone crossing. See the N146GS flight status page for this flight to view local times or setup timezone preferences in your user account.

Time Position Orientation Groundspeed Altitude Reporting Facility
EDT Latitude Longitude Course Direction KTS MPH feet Rate Location/Type
04:35PM 33.8352 -81.8275 329° Northwest  Level FlightAware Approximate
04:36PM 33.8686 -81.8519 320° Northwest  Level FlightAware Approximate
04:37PM 33.8998 -81.8801 326° Northwest  Level FlightAware Approximate
04:38PM 33.9322 -81.9066 326° Northwest  Level FlightAware Approximate
04:39PM 33.9646 -81.9331 326° Northwest  Level FlightAware Approximate
04:40PM 33.9970 -81.9595 326° Northwest  Level FlightAware Approximate
04:41PM 34.0293 -81.9861 326° Northwest  Level FlightAware Approximate
04:42PM 34.0617 -82.0126 326° Northwest  Level FlightAware Approximate
04:43PM 34.0950 -82.0372 329° Northwest  Level FlightAware Approximate
04:44PM 34.1286 -82.0616 329° Northwest  Level FlightAware Approximate
04:45PM 34.1621 -82.0860 329° Northwest  Level FlightAware Approximate
04:46PM 34.1956 -82.1104 329° Northwest  Level FlightAware Approximate
04:47PM 34.2291 -82.1348 329° Northwest  Level FlightAware Approximate
04:48PM 34.2643 -82.1543 346° North  Level FlightAware Approximate
04:49PM 34.3023 -82.1657 346° North  Level FlightAware Approximate
04:50PM 34.3402 -82.1770 346° North  Level FlightAware Approximate
04:51PM 34.3782 -82.1885 346° North  Level FlightAware Approximate
04:52PM 34.4162 -82.1999 346° North  Level FlightAware Approximate
04:53PM 34.4539 -82.2124 345° North  Level FlightAware Approximate
04:54PM 34.4914 -82.2259 343° North  Level FlightAware Approximate
04:55PM 34.5288 -82.2399 343° North  Level FlightAware Approximate
04:56PM 34.5662 -82.2540 343° North  Level FlightAware Approximate
04:57PM 34.6037 -82.2667 North  Level FlightAware Approximate
04:58PM 34.6419 -82.2751 345° North  Level FlightAware Approximate
04:59PM 34.6796 -82.2876 345° North  Level FlightAware Approximate
05:00PM 34.7174 -82.3002 345° North  Level FlightAware Approximate
05:01PM 34.7551 -82.3128 345° North  Level FlightAware Approximate
05:02PM 34.7928 -82.3254 345° North  Level FlightAware Approximate
05:03PM 34.8278 -82.3445 321° Northwest  Level FlightAware Approximate
05:04PM 34.8333 -82.3500 321° Northwest  Level FlightAware Approximate
05:05PM 34.8479 -82.3500 321° Northwest  Level Estimated
05:06PM 34.8479 -82.3500 321° Northwest  Level Estimated
05:07PM 34.8479 -82.3500 321° Northwest  Level Estimated